createdAt,value
2022-12-13T00:01:46.646Z,89.21
2022-12-13T00:04:14.871Z,89.00
2022-12-13T00:06:44.611Z,88.53
2022-12-13T00:09:15.218Z,88.08
2022-12-13T00:11:43.388Z,88.49
2022-12-13T00:14:13.858Z,89.04
2022-12-13T00:16:42.322Z,88.45
2022-12-13T00:19:10.416Z,89.30
2022-12-13T00:21:39.752Z,88.06
2022-12-13T00:24:09.375Z,87.94
2022-12-13T00:26:38.042Z,87.88
2022-12-13T00:29:08.452Z,88.23
2022-12-13T00:31:59.437Z,88.64
2022-12-13T00:34:25.202Z,87.78
2022-12-13T00:36:54.798Z,87.91
2022-12-13T00:39:24.165Z,87.22
2022-12-13T00:41:52.080Z,87.15
2022-12-13T00:44:20.333Z,88.04
2022-12-13T00:46:48.396Z,87.20
2022-12-13T00:49:16.541Z,87.13
2022-12-13T00:51:44.849Z,87.73
2022-12-13T00:54:12.684Z,87.17
2022-12-13T00:56:41.890Z,87.48
2022-12-13T00:59:14.338Z,87.57
2022-12-13T01:01:42.283Z,87.38
2022-12-13T01:04:10.199Z,87.96
2022-12-13T01:06:43.123Z,88.29
2022-12-13T01:09:17.089Z,87.58
2022-12-13T01:11:47.472Z,87.39
2022-12-13T01:14:16.337Z,87.54
2022-12-13T01:16:44.360Z,87.74
2022-12-13T01:19:12.338Z,88.00
2022-12-13T01:21:40.320Z,88.38
2022-12-13T01:24:08.669Z,87.60
2022-12-13T01:26:37.768Z,87.87
2022-12-13T01:29:07.183Z,88.44
2022-12-13T01:31:37.582Z,88.05
2022-12-13T01:34:10.544Z,88.39
2022-12-13T01:36:40.206Z,88.31
2022-12-13T01:39:14.620Z,88.95
2022-12-13T01:41:44.819Z,88.83
2022-12-13T01:44:46.088Z,88.10
2022-12-13T01:47:19.204Z,88.16
2022-12-13T01:49:47.423Z,88.84
2022-12-13T01:52:16.318Z,88.74
2022-12-13T01:54:47.972Z,88.65
2022-12-13T01:57:18.555Z,88.65
2022-12-13T01:59:48.241Z,89.64
2022-12-13T02:02:17.519Z,88.58
2022-12-13T02:04:51.687Z,89.00
2022-12-13T02:07:23.737Z,88.64
2022-12-13T02:09:56.497Z,88.82
2022-12-13T02:12:29.609Z,88.22
2022-12-13T02:15:00.766Z,88.85
2022-12-13T02:17:45.726Z,88.83
2022-12-13T02:20:52.371Z,88.82
2022-12-13T02:23:38.841Z,87.96
2022-12-13T02:26:32.332Z,87.68
2022-12-13T02:29:30.563Z,87.86
2022-12-13T02:32:05.285Z,87.95
2022-12-13T02:34:39.702Z,88.34
2022-12-13T02:37:18.034Z,88.54
2022-12-13T02:39:53.116Z,88.09
2022-12-13T02:42:26.548Z,88.32
2022-12-13T02:44:58.781Z,88.55
2022-12-13T02:47:30.224Z,87.62
2022-12-13T02:50:02.898Z,87.78
2022-12-13T02:52:33.650Z,88.69
2022-12-13T02:55:01.528Z,87.66
2022-12-13T02:57:32.697Z,87.38
2022-12-13T03:00:04.277Z,86.80
2022-12-13T03:02:44.640Z,86.85
2022-12-13T03:05:41.135Z,87.05
2022-12-13T03:08:22.214Z,86.74
2022-12-13T03:11:00.163Z,86.78
2022-12-13T03:13:37.542Z,86.95
2022-12-13T03:16:24.215Z,86.42
2022-12-13T03:18:56.236Z,86.85
2022-12-13T03:21:24.431Z,87.19
2022-12-13T03:23:53.182Z,87.89
2022-12-13T03:26:24.124Z,87.49
2022-12-13T03:28:52.662Z,87.55
2022-12-13T03:31:20.935Z,86.98
2022-12-13T03:33:48.902Z,87.15
2022-12-13T03:36:19.805Z,87.26
2022-12-13T03:38:48.768Z,87.07
2022-12-13T03:41:19.860Z,87.93
2022-12-13T03:43:47.885Z,87.42
2022-12-13T03:46:15.877Z,87.39
2022-12-13T03:48:43.815Z,87.54
2022-12-13T03:51:11.708Z,87.28
2022-12-13T03:53:40.951Z,87.12
2022-12-13T03:56:09.374Z,86.16
2022-12-13T03:58:38.453Z,86.90
2022-12-13T04:01:11.542Z,86.88
2022-12-13T04:03:40.560Z,86.62
2022-12-13T04:06:09.630Z,86.21
2022-12-13T04:08:38.825Z,86.52
2022-12-13T04:11:22.833Z,86.82
2022-12-13T04:13:50.679Z,87.07
2022-12-13T04:16:18.877Z,87.51
2022-12-13T04:18:46.814Z,87.07
2022-12-13T04:21:14.683Z,87.49
2022-12-13T04:23:42.415Z,86.76
2022-12-13T04:26:11.617Z,87.37
2022-12-13T04:28:39.584Z,86.99
2022-12-13T04:31:08.011Z,86.55
2022-12-13T04:33:35.913Z,87.32
2022-12-13T04:36:04.085Z,87.09
2022-12-13T04:38:31.952Z,86.93
2022-12-13T04:41:07.048Z,87.37
2022-12-13T04:43:36.332Z,87.04
2022-12-13T04:46:04.588Z,86.74
2022-12-13T04:48:33.470Z,85.77
2022-12-13T04:51:02.762Z,86.40
2022-12-13T04:53:31.235Z,86.82
2022-12-13T04:55:59.194Z,86.69
2022-12-13T04:58:27.799Z,86.61
2022-12-13T05:00:57.437Z,86.15
2022-12-13T05:03:25.768Z,85.56
2022-12-13T05:05:53.702Z,85.84
2022-12-13T05:08:21.624Z,86.00
2022-12-13T05:10:49.595Z,85.86
2022-12-13T05:13:17.736Z,86.70
2022-12-13T05:15:49.422Z,86.23
2022-12-13T05:18:21.347Z,87.40
2022-12-13T05:20:50.922Z,87.38
2022-12-13T05:23:22.346Z,87.69
2022-12-13T05:25:51.274Z,87.60
2022-12-13T05:28:27.893Z,87.46
2022-12-13T05:30:58.578Z,87.29
2022-12-13T05:33:28.327Z,88.03
2022-12-13T05:35:59.937Z,87.09
2022-12-13T05:38:29.781Z,86.89
2022-12-13T05:40:57.554Z,86.93
2022-12-13T05:43:42.367Z,87.61
2022-12-13T05:46:12.746Z,87.44
2022-12-13T05:48:42.342Z,88.59
2022-12-13T05:51:11.853Z,88.01
2022-12-13T05:53:41.470Z,87.06
2022-12-13T05:56:10.894Z,87.79
2022-12-13T05:58:40.166Z,88.05
2022-12-13T06:01:10.107Z,87.50
2022-12-13T06:03:38.263Z,87.28
2022-12-13T06:06:09.520Z,87.44
2022-12-13T06:08:38.177Z,87.15
2022-12-13T06:11:10.860Z,87.08
2022-12-13T06:13:42.821Z,86.80
2022-12-13T06:16:22.445Z,87.11
2022-12-13T06:19:02.739Z,87.00
2022-12-13T06:21:43.931Z,86.34
2022-12-13T06:24:15.397Z,87.19
2022-12-13T06:26:45.414Z,87.04
2022-12-13T06:29:24.266Z,86.90
2022-12-13T06:31:55.071Z,87.00
2022-12-13T06:34:32.820Z,87.15
2022-12-13T06:37:02.706Z,87.06
2022-12-13T06:39:33.269Z,87.16
2022-12-13T06:42:02.723Z,87.16
2022-12-13T06:44:30.714Z,87.08
2022-12-13T06:47:11.839Z,87.09
2022-12-13T06:49:43.682Z,86.48
2022-12-13T06:52:16.171Z,86.72
2022-12-13T06:54:44.886Z,87.09
2022-12-13T06:57:13.837Z,86.89
2022-12-13T06:59:42.687Z,86.77
2022-12-13T07:02:15.481Z,86.88
2022-12-13T07:04:55.551Z,86.98
2022-12-13T07:07:26.253Z,86.95
2022-12-13T07:09:54.718Z,86.84
2022-12-13T07:12:23.092Z,87.10
2022-12-13T07:14:50.980Z,87.04
2022-12-13T07:17:31.801Z,86.77
2022-12-13T07:20:07.770Z,86.68
2022-12-13T07:22:44.972Z,86.27
2022-12-13T07:25:28.539Z,86.14
2022-12-13T07:28:02.932Z,86.94
2022-12-13T07:30:33.663Z,86.21
2022-12-13T07:33:02.786Z,86.00
2022-12-13T07:35:31.024Z,85.83
2022-12-13T07:38:07.259Z,86.05
2022-12-13T07:40:35.728Z,86.35
2022-12-13T07:43:03.828Z,86.51
2022-12-13T07:45:31.742Z,86.40
2022-12-13T07:48:00.364Z,86.22
2022-12-13T07:50:28.381Z,86.27
2022-12-13T07:53:08.261Z,86.21
2022-12-13T07:55:37.433Z,86.44
2022-12-13T07:58:06.633Z,86.44
2022-12-13T08:00:34.540Z,86.01
2022-12-13T08:03:02.662Z,85.80
2022-12-13T08:05:38.223Z,85.28
2022-12-13T08:08:11.832Z,85.39
2022-12-13T08:10:40.227Z,85.77
2022-12-13T08:13:08.320Z,85.31
2022-12-13T08:15:36.209Z,85.42
2022-12-13T08:18:06.901Z,84.82
2022-12-13T08:20:34.917Z,85.33
2022-12-13T08:23:02.891Z,85.37
2022-12-13T08:25:32.703Z,85.29
2022-12-13T08:28:01.494Z,85.05
2022-12-13T08:30:31.537Z,84.47
2022-12-13T08:32:59.403Z,84.44
2022-12-13T08:35:34.839Z,84.22
2022-12-13T08:38:03.683Z,84.53
2022-12-13T08:40:33.973Z,84.78
2022-12-13T08:43:01.931Z,84.32
2022-12-13T08:45:31.601Z,85.28
2022-12-13T08:48:00.884Z,84.71
2022-12-13T08:50:29.438Z,83.13
2022-12-13T08:52:57.721Z,83.00
2022-12-13T08:55:31.239Z,83.91
2022-12-13T08:58:08.386Z,83.57
2022-12-13T09:00:40.105Z,84.27
2022-12-13T09:03:10.193Z,84.66
2022-12-13T09:05:39.086Z,83.62
2022-12-13T09:08:23.096Z,83.16
2022-12-13T09:11:11.358Z,83.08
2022-12-13T09:13:52.400Z,82.13
2022-12-13T09:16:35.761Z,81.21
2022-12-13T09:19:06.600Z,81.71
2022-12-13T09:21:53.647Z,81.58
2022-12-13T09:24:36.189Z,81.03
2022-12-13T09:27:09.239Z,79.87
2022-12-13T09:29:39.646Z,80.73
2022-12-13T09:32:07.794Z,80.78
2022-12-13T09:34:35.934Z,81.01
2022-12-13T09:37:04.014Z,80.62
2022-12-13T09:39:31.899Z,81.24
2022-12-13T09:42:01.755Z,81.59
2022-12-13T09:44:49.756Z,81.11
2022-12-13T09:47:47.136Z,80.30
2022-12-13T09:50:25.201Z,80.28
2022-12-13T09:52:59.993Z,80.59
2022-12-13T09:55:32.302Z,80.72
2022-12-13T09:58:06.692Z,81.34
2022-12-13T10:00:37.527Z,79.49
2022-12-13T10:03:05.531Z,78.54
2022-12-13T10:05:39.423Z,79.28
2022-12-13T10:08:12.811Z,78.40
2022-12-13T10:10:40.993Z,78.89
2022-12-13T10:13:17.661Z,79.56
2022-12-13T10:15:51.473Z,79.26
2022-12-13T10:18:27.883Z,78.43
2022-12-13T10:20:56.807Z,78.04
2022-12-13T10:23:47.051Z,77.89
2022-12-13T10:26:24.300Z,78.76
2022-12-13T10:29:03.039Z,77.97
2022-12-13T10:31:41.541Z,78.59
2022-12-13T10:34:21.269Z,78.15
2022-12-13T10:36:49.381Z,77.58
2022-12-13T10:39:20.207Z,78.98
2022-12-13T10:41:48.582Z,77.51
2022-12-13T10:44:22.563Z,77.08
2022-12-13T10:47:00.873Z,78.05
2022-12-13T10:49:35.935Z,76.39
2022-12-13T10:52:04.041Z,77.72
2022-12-13T10:54:38.462Z,77.79
2022-12-13T10:57:16.600Z,77.06
2022-12-13T10:59:47.154Z,74.67
2022-12-13T11:02:36.889Z,75.19
2022-12-13T11:05:27.413Z,75.83
2022-12-13T11:08:00.923Z,75.77
2022-12-13T11:10:30.372Z,75.78
2022-12-13T11:13:02.622Z,75.88
2022-12-13T11:15:32.851Z,74.93
2022-12-13T11:18:05.684Z,75.26
2022-12-13T11:20:36.761Z,74.65
2022-12-13T11:23:08.694Z,75.72
2022-12-13T11:25:41.807Z,75.82
2022-12-13T11:28:27.822Z,73.60
2022-12-13T11:31:07.613Z,74.29
2022-12-13T11:33:48.915Z,74.32
2022-12-13T11:36:29.432Z,74.78
2022-12-13T11:39:15.231Z,75.40
2022-12-13T11:41:50.648Z,75.59
2022-12-13T11:44:25.414Z,75.16
2022-12-13T11:46:56.869Z,73.90
2022-12-13T11:49:38.248Z,73.96
2022-12-13T11:52:15.371Z,73.72
2022-12-13T11:54:55.703Z,74.02
2022-12-13T11:57:44.021Z,71.89
2022-12-13T12:00:34.269Z,72.33
2022-12-13T12:03:18.358Z,72.48
2022-12-13T12:05:56.192Z,73.65
2022-12-13T12:08:34.442Z,73.01
2022-12-13T12:11:09.954Z,73.05
2022-12-13T12:13:50.908Z,72.45
2022-12-13T12:16:29.917Z,71.79
2022-12-13T12:19:01.350Z,71.76
2022-12-13T12:24:36.279Z,72.19
2022-12-13T12:27:22.367Z,73.22
2022-12-13T12:30:11.387Z,72.75
2022-12-13T12:32:48.693Z,73.14
2022-12-13T12:35:28.981Z,73.06
2022-12-13T12:38:13.007Z,72.87
2022-12-13T12:41:15.544Z,72.90
2022-12-13T12:43:43.476Z,73.38
2022-12-13T12:46:52.267Z,73.73
2022-12-13T12:50:02.870Z,73.12
2022-12-13T12:52:45.255Z,73.33
2022-12-13T12:55:20.635Z,74.08
2022-12-13T12:58:01.396Z,73.74
2022-12-13T13:00:36.862Z,73.44
2022-12-13T13:03:26.738Z,73.09
2022-12-13T13:06:02.381Z,73.76
2022-12-13T13:08:38.781Z,73.70
2022-12-13T13:11:25.065Z,73.65
2022-12-13T13:14:06.508Z,73.57
2022-12-13T13:16:39.114Z,73.23
2022-12-13T13:19:27.387Z,72.61
2022-12-13T13:22:02.092Z,71.99
2022-12-13T13:24:31.966Z,72.40
2022-12-13T13:27:21.023Z,72.46
2022-12-13T13:29:48.954Z,72.44
2022-12-13T13:32:30.083Z,72.31
2022-12-13T13:35:31.520Z,70.03
2022-12-13T13:38:06.081Z,72.17
2022-12-13T13:40:35.770Z,72.19
2022-12-13T13:43:10.819Z,73.05
2022-12-13T13:45:57.230Z,73.17
2022-12-13T13:48:40.434Z,72.93
2022-12-13T13:52:16.768Z,71.87
2022-12-13T13:55:03.945Z,72.54
2022-12-13T13:58:09.804Z,73.61
2022-12-13T14:01:02.496Z,73.06
2022-12-13T14:04:10.267Z,74.27
2022-12-13T14:07:10.382Z,73.98
2022-12-13T14:09:54.606Z,74.31
2022-12-13T14:13:04.164Z,74.10
2022-12-13T14:16:23.662Z,74.66
2022-12-13T14:19:29.572Z,74.60
2022-12-13T14:22:39.506Z,75.65
2022-12-13T14:25:46.442Z,76.42
2022-12-13T14:28:28.897Z,76.64
2022-12-13T14:30:57.932Z,76.06
2022-12-13T14:33:28.345Z,75.82
2022-12-13T14:36:00.890Z,75.28
2022-12-13T14:38:30.537Z,76.73
2022-12-13T14:41:02.225Z,76.67
2022-12-13T14:43:37.482Z,76.79
2022-12-13T14:46:07.960Z,77.24
2022-12-13T14:48:38.464Z,78.06
2022-12-13T14:51:06.594Z,78.23
2022-12-13T14:53:41.190Z,78.22
2022-12-13T14:56:27.660Z,77.65
2022-12-13T14:58:58.696Z,78.00
2022-12-13T15:01:30.387Z,79.20
2022-12-13T15:04:20.506Z,79.27
2022-12-13T15:06:55.515Z,79.60
2022-12-13T15:09:29.017Z,80.17
2022-12-13T15:12:14.806Z,79.85
2022-12-13T15:14:51.615Z,79.52
2022-12-13T15:17:28.029Z,79.66
2022-12-13T15:19:58.626Z,80.35
2022-12-13T15:22:29.466Z,80.06
2022-12-13T15:24:58.644Z,79.59
2022-12-13T15:27:28.312Z,79.77
2022-12-13T15:29:56.657Z,79.60
2022-12-13T15:32:24.526Z,79.04
2022-12-13T15:34:52.855Z,78.40
2022-12-13T15:37:28.038Z,79.30
2022-12-13T15:40:01.231Z,79.27
2022-12-13T15:42:34.873Z,79.67
2022-12-13T15:45:07.038Z,78.93
2022-12-13T15:47:35.259Z,78.79
2022-12-13T15:50:06.826Z,78.58
2022-12-13T15:52:37.790Z,78.96
2022-12-13T15:55:33.798Z,79.38
2022-12-13T15:58:04.018Z,78.60
2022-12-13T16:00:34.423Z,78.90
2022-12-13T16:03:09.747Z,78.90
2022-12-13T16:05:42.361Z,78.84
2022-12-13T16:08:25.628Z,79.15
2022-12-13T16:10:54.613Z,78.99
2022-12-13T16:13:27.747Z,79.38
2022-12-13T16:16:26.459Z,79.60
2022-12-13T16:18:57.591Z,79.75
2022-12-13T16:21:26.325Z,79.16
2022-12-13T16:23:54.755Z,77.90
2022-12-13T16:26:25.679Z,76.98
2022-12-13T16:28:56.855Z,76.05
2022-12-13T16:31:27.784Z,76.28
2022-12-13T16:34:19.571Z,76.19
2022-12-13T16:36:54.303Z,75.37
2022-12-13T16:39:22.129Z,76.50
2022-12-13T16:41:50.015Z,77.04
2022-12-13T16:44:27.936Z,76.46
2022-12-13T16:47:12.090Z,76.86
2022-12-13T16:49:44.145Z,77.27
2022-12-13T16:52:12.161Z,76.34
2022-12-13T16:54:40.109Z,76.53
2022-12-13T16:57:08.019Z,76.79
2022-12-13T16:59:37.438Z,77.32
2022-12-13T17:02:06.277Z,77.17
2022-12-13T17:04:34.269Z,76.36
2022-12-13T17:07:02.182Z,77.94
2022-12-13T17:09:30.094Z,78.24
2022-12-13T17:11:58.189Z,77.86
2022-12-13T17:14:26.230Z,77.56
2022-12-13T17:16:55.636Z,78.50
2022-12-13T17:19:24.015Z,78.21
2022-12-13T17:21:52.574Z,78.77
2022-12-13T17:24:20.401Z,78.83
2022-12-13T17:26:54.785Z,78.88
2022-12-13T17:29:24.347Z,79.37
2022-12-13T17:31:52.498Z,79.65
2022-12-13T17:34:21.787Z,79.32
2022-12-13T17:36:49.838Z,79.14
2022-12-13T17:39:17.718Z,78.51
2022-12-13T17:41:55.390Z,78.49
2022-12-13T17:44:25.310Z,77.87
2022-12-13T17:46:54.949Z,78.65
2022-12-13T17:49:25.285Z,78.07
2022-12-13T17:51:54.088Z,78.14
2022-12-13T17:54:23.586Z,77.73
2022-12-13T17:56:51.406Z,77.95
2022-12-13T17:59:19.355Z,77.20
2022-12-13T18:01:47.977Z,76.81
2022-12-13T18:04:16.179Z,76.88
2022-12-13T18:06:45.876Z,76.96
2022-12-13T18:09:14.438Z,77.08
2022-12-13T18:11:42.293Z,77.59
2022-12-13T18:14:10.434Z,77.68
2022-12-13T18:16:39.355Z,78.06
2022-12-13T18:19:09.405Z,78.23
2022-12-13T18:21:39.903Z,76.60
2022-12-13T18:24:10.502Z,77.29
2022-12-13T18:26:38.476Z,77.02
2022-12-13T18:29:07.109Z,77.12
2022-12-13T18:31:35.348Z,76.97
2022-12-13T18:34:03.275Z,76.96
2022-12-13T18:36:31.314Z,77.90
2022-12-13T18:38:59.355Z,77.49
2022-12-13T18:41:30.697Z,77.47
2022-12-13T18:44:00.222Z,77.32
2022-12-13T18:46:29.285Z,77.32
2022-12-13T18:48:57.844Z,77.86
2022-12-13T18:51:26.062Z,77.57
2022-12-13T18:53:54.536Z,77.83
2022-12-13T18:56:22.691Z,78.43
2022-12-13T18:58:53.299Z,78.31
2022-12-13T19:01:25.596Z,78.06
2022-12-13T19:03:53.757Z,77.67
2022-12-13T19:06:23.819Z,77.07
2022-12-13T19:09:17.818Z,76.87
2022-12-13T19:11:45.780Z,76.22
2022-12-13T19:14:15.002Z,76.58
2022-12-13T19:16:43.058Z,76.61
2022-12-13T19:19:10.945Z,76.45
2022-12-13T19:21:38.795Z,76.75
2022-12-13T19:24:10.889Z,77.23
2022-12-13T19:26:39.055Z,76.76
2022-12-13T19:29:07.370Z,76.96
2022-12-13T19:31:36.727Z,76.84
2022-12-13T19:34:04.880Z,77.05
2022-12-13T19:36:33.874Z,77.62
2022-12-13T19:39:02.084Z,77.60
2022-12-13T19:41:32.178Z,77.72
2022-12-13T19:44:03.577Z,77.07
2022-12-13T19:46:31.693Z,77.31
2022-12-13T19:49:01.054Z,76.78
2022-12-13T19:51:29.809Z,77.25
2022-12-13T19:54:00.376Z,76.84
2022-12-13T19:56:28.245Z,77.18
2022-12-13T19:58:56.180Z,76.95
2022-12-13T20:01:24.273Z,77.47
2022-12-13T20:03:52.140Z,77.33
2022-12-13T20:06:24.043Z,77.13
2022-12-13T20:08:52.223Z,76.87
2022-12-13T20:11:21.902Z,77.19
2022-12-13T20:13:51.273Z,77.26
2022-12-13T20:16:21.786Z,77.13
2022-12-13T20:18:55.537Z,78.04
2022-12-13T20:21:25.291Z,77.63
2022-12-13T20:23:53.387Z,77.82
2022-12-13T20:26:23.565Z,77.76
2022-12-13T20:28:52.179Z,77.21
2022-12-13T20:31:21.981Z,77.89
2022-12-13T20:33:50.007Z,77.99
2022-12-13T20:36:24.736Z,77.86
2022-12-13T20:38:56.186Z,77.88
2022-12-13T20:41:25.986Z,77.73
2022-12-13T20:43:54.538Z,77.62
2022-12-13T20:46:23.363Z,77.95
2022-12-13T20:48:52.936Z,77.86
2022-12-13T20:51:22.467Z,78.35
2022-12-13T20:53:51.680Z,78.13
2022-12-13T20:56:22.748Z,78.11
2022-12-13T20:58:51.996Z,77.94
2022-12-13T21:01:22.255Z,78.10
2022-12-13T21:03:51.330Z,77.86
2022-12-13T21:06:19.180Z,77.86
2022-12-13T21:08:53.051Z,77.52
2022-12-13T21:11:29.184Z,77.30
2022-12-13T21:14:05.421Z,77.10
2022-12-13T21:16:39.208Z,77.27
2022-12-13T21:19:08.530Z,78.23
2022-12-13T21:21:36.778Z,78.47
2022-12-13T21:24:04.890Z,77.64
2022-12-13T21:26:36.123Z,76.47
2022-12-13T21:29:07.280Z,76.63
2022-12-13T21:31:36.443Z,77.32
2022-12-13T21:34:06.528Z,77.12
2022-12-13T21:36:36.142Z,76.76
2022-12-13T21:39:07.037Z,77.70
2022-12-13T21:41:36.419Z,78.70
2022-12-13T21:44:04.217Z,77.95
2022-12-13T21:47:11.276Z,77.80
2022-12-13T21:49:20.645Z,76.18
2022-12-13T21:51:48.777Z,75.74
2022-12-13T21:54:17.843Z,75.55
2022-12-13T21:57:04.496Z,75.21
2022-12-13T21:59:32.690Z,75.87
2022-12-13T22:02:19.032Z,76.53
2022-12-13T22:04:49.115Z,76.37
2022-12-13T22:07:19.092Z,76.42
2022-12-13T22:09:47.812Z,76.79
2022-12-13T22:12:22.688Z,77.07
2022-12-13T22:14:50.936Z,77.40
2022-12-13T22:17:19.804Z,77.39
2022-12-13T22:19:48.747Z,77.34
2022-12-13T22:22:17.808Z,76.57
2022-12-13T22:24:52.695Z,76.71
2022-12-13T22:27:23.919Z,76.04
2022-12-13T22:29:52.500Z,75.65
2022-12-13T22:32:21.095Z,75.35
2022-12-13T22:34:49.020Z,75.06
2022-12-13T22:37:16.992Z,75.37
2022-12-13T22:39:44.882Z,75.65
2022-12-13T22:42:12.654Z,75.83
2022-12-13T22:44:45.736Z,75.72
2022-12-13T22:47:13.561Z,75.50
2022-12-13T22:49:41.966Z,75.65
2022-12-13T22:52:09.974Z,75.61
2022-12-13T22:54:38.085Z,75.62
2022-12-13T22:57:05.943Z,75.62
2022-12-13T22:59:34.010Z,74.72
2022-12-13T23:02:04.029Z,74.60
2022-12-13T23:04:32.765Z,73.76
2022-12-13T23:07:00.852Z,73.98
2022-12-13T23:09:28.802Z,73.95
2022-12-13T23:12:14.518Z,73.73
2022-12-13T23:14:42.645Z,73.74
2022-12-13T23:17:11.913Z,73.65
2022-12-13T23:19:50.127Z,74.01
2022-12-13T23:22:21.513Z,73.16
2022-12-13T23:24:49.988Z,74.04
2022-12-13T23:27:18.355Z,73.70
2022-12-13T23:29:46.305Z,73.96
2022-12-13T23:32:15.965Z,74.20
2022-12-13T23:34:43.758Z,73.80
2022-12-13T23:37:11.670Z,72.91
2022-12-13T23:39:41.018Z,73.25
2022-12-13T23:42:08.866Z,73.13
2022-12-13T23:44:37.549Z,72.93
2022-12-13T23:47:05.524Z,73.05
2022-12-13T23:49:34.996Z,72.93
2022-12-13T23:52:03.000Z,72.74
2022-12-13T23:54:30.864Z,73.08
2022-12-13T23:56:58.778Z,72.92
2022-12-13T23:59:28.263Z,72.77
